createdAt,value
2023-04-08T00:00:18.131Z,16.52
2023-04-08T00:00:39.833Z,16.49
2023-04-08T00:01:02.417Z,16.49
2023-04-08T00:01:24.468Z,16.50
2023-04-08T00:01:46.234Z,16.45
2023-04-08T00:02:07.991Z,16.46
2023-04-08T00:02:30.782Z,16.51
2023-04-08T00:02:52.772Z,16.50
2023-04-08T00:03:14.555Z,16.51
2023-04-08T00:03:37.971Z,16.46
2023-04-08T00:04:00.843Z,16.35
2023-04-08T00:04:22.767Z,16.50
2023-04-08T00:04:44.431Z,16.51
2023-04-08T00:05:06.677Z,16.48
2023-04-08T00:05:29.462Z,16.50
2023-04-08T00:05:51.055Z,16.49
2023-04-08T00:06:12.727Z,16.37
2023-04-08T00:06:34.367Z,16.46
2023-04-08T00:06:57.659Z,16.47
2023-04-08T00:07:19.261Z,16.46
2023-04-08T00:07:40.934Z,16.48
2023-04-08T00:08:02.548Z,16.45
2023-04-08T00:08:25.144Z,16.52
2023-04-08T00:08:46.773Z,16.46
2023-04-08T00:09:08.437Z,16.54
2023-04-08T00:09:30.252Z,16.54
2023-04-08T00:09:52.051Z,16.54
2023-04-08T00:10:14.659Z,16.53
2023-04-08T00:10:36.584Z,16.49
2023-04-08T00:10:58.231Z,16.51
2023-04-08T00:11:20.074Z,16.50
2023-04-08T00:11:43.339Z,16.52
2023-04-08T00:12:05.355Z,16.49
2023-04-08T00:12:27.093Z,16.51
2023-04-08T00:12:48.745Z,16.51
2023-04-08T00:13:11.677Z,16.50
2023-04-08T00:13:33.617Z,16.51
2023-04-08T00:13:55.280Z,16.52
2023-04-08T00:14:16.905Z,16.53
2023-04-08T00:14:41.410Z,16.53
2023-04-08T00:15:03.150Z,16.49
2023-04-08T00:15:24.817Z,16.51
2023-04-08T00:15:46.732Z,16.51
2023-04-08T00:16:09.762Z,16.54
2023-04-08T00:16:31.469Z,16.53
2023-04-08T00:16:53.201Z,16.53
2023-04-08T00:17:15.001Z,16.52
2023-04-08T00:17:37.859Z,16.47
2023-04-08T00:17:59.590Z,16.51
2023-04-08T00:18:21.248Z,16.50
2023-04-08T00:18:45.000Z,16.50
2023-04-08T00:19:07.980Z,16.50
2023-04-08T00:19:29.652Z,16.50
2023-04-08T00:19:51.829Z,16.49
2023-04-08T00:20:13.625Z,16.47
2023-04-08T00:20:35.437Z,16.49
2023-04-08T00:20:58.207Z,16.48
2023-04-08T00:21:20.815Z,16.47
2023-04-08T00:21:42.581Z,16.27
2023-04-08T00:22:05.298Z,16.44
2023-04-08T00:22:27.053Z,16.43
2023-04-08T00:22:48.722Z,16.45
2023-04-08T00:23:10.405Z,16.45
2023-04-08T00:23:33.178Z,16.43
2023-04-08T00:23:54.837Z,16.39
2023-04-08T00:24:16.596Z,16.38
2023-04-08T00:24:38.290Z,16.44
2023-04-08T00:25:01.805Z,16.42
2023-04-08T00:25:25.358Z,16.37
2023-04-08T00:25:47.524Z,16.42
2023-04-08T00:26:09.131Z,16.41
2023-04-08T00:26:32.314Z,16.44
2023-04-08T00:26:54.083Z,16.42
2023-04-08T00:27:16.232Z,16.43
2023-04-08T00:27:37.923Z,16.43
2023-04-08T00:27:59.633Z,16.45
2023-04-08T00:28:22.253Z,16.46
2023-04-08T00:28:43.966Z,16.46
2023-04-08T00:29:05.727Z,16.45
2023-04-08T00:29:27.354Z,16.42
2023-04-08T00:29:49.300Z,16.41
2023-04-08T00:30:12.665Z,16.41
2023-04-08T00:30:34.343Z,16.37
2023-04-08T00:30:58.220Z,16.40
2023-04-08T00:31:20.063Z,16.40
2023-04-08T00:32:26.702Z,16.42
2023-04-08T00:32:48.510Z,16.39
2023-04-08T00:33:10.419Z,16.36
2023-04-08T00:33:34.674Z,16.39
2023-04-08T00:33:57.916Z,16.40
2023-04-08T00:34:19.651Z,16.42
2023-04-08T00:34:41.980Z,16.42
2023-04-08T00:35:05.130Z,16.42
2023-04-08T00:35:28.020Z,16.38
2023-04-08T00:35:49.759Z,16.42
2023-04-08T00:36:11.556Z,16.43
2023-04-08T00:36:34.615Z,16.46
2023-04-08T00:36:56.696Z,16.46
2023-04-08T00:37:18.524Z,16.46
2023-04-08T00:37:41.395Z,16.46
2023-04-08T00:38:07.875Z,16.47
2023-04-08T00:38:29.504Z,16.49
2023-04-08T00:38:51.256Z,16.46
2023-04-08T00:39:13.510Z,16.46
2023-04-08T00:39:36.444Z,16.41
2023-04-08T00:39:58.189Z,16.45
2023-04-08T00:40:19.860Z,16.46
2023-04-08T00:40:41.671Z,16.45
2023-04-08T00:41:04.308Z,16.47
2023-04-08T00:41:25.922Z,16.47
2023-04-08T00:41:47.586Z,16.44
2023-04-08T00:42:09.703Z,16.46
2023-04-08T00:42:32.298Z,16.45
2023-04-08T00:42:53.983Z,16.42
2023-04-08T00:43:16.597Z,16.43
2023-04-08T00:43:38.196Z,16.40
2023-04-08T00:43:59.858Z,16.42
2023-04-08T00:44:22.873Z,16.42
2023-04-08T00:44:44.554Z,16.40
2023-04-08T00:45:07.448Z,16.40
2023-04-08T00:45:29.118Z,16.40
2023-04-08T00:45:51.050Z,16.39
2023-04-08T00:46:13.807Z,16.37
2023-04-08T00:46:38.523Z,16.40
2023-04-08T00:47:00.471Z,16.39
2023-04-08T00:47:22.259Z,16.33
2023-04-08T00:47:45.085Z,16.41
2023-04-08T00:48:07.042Z,16.39
2023-04-08T00:48:29.767Z,16.39
2023-04-08T00:48:51.627Z,16.38
2023-04-08T00:49:16.065Z,16.40
2023-04-08T00:49:37.707Z,16.36
2023-04-08T00:49:59.507Z,16.37
2023-04-08T00:50:21.564Z,16.35
2023-04-08T00:50:44.861Z,16.32
2023-04-08T00:51:07.090Z,16.37
2023-04-08T00:51:28.963Z,16.36
2023-04-08T00:51:50.740Z,16.35
2023-04-08T00:52:12.414Z,16.38
2023-04-08T00:52:35.649Z,16.36
2023-04-08T00:52:57.296Z,16.38
2023-04-08T00:53:19.898Z,16.37
2023-04-08T00:53:42.637Z,16.37
2023-04-08T00:54:05.273Z,16.37
2023-04-08T00:54:27.177Z,16.40
2023-04-08T00:54:48.946Z,16.40
2023-04-08T00:55:11.586Z,16.32
2023-04-08T00:55:33.193Z,16.39
2023-04-08T00:55:54.823Z,16.40
2023-04-08T00:56:16.887Z,16.41
2023-04-08T00:56:39.792Z,16.40
2023-04-08T00:57:01.459Z,16.39
2023-04-08T00:57:23.167Z,16.40
2023-04-08T00:57:45.589Z,16.38
2023-04-08T00:58:09.116Z,16.39
2023-04-08T00:58:31.010Z,16.40
2023-04-08T00:58:55.543Z,16.39
2023-04-08T00:59:18.728Z,16.38
2023-04-08T00:59:42.127Z,16.37
2023-04-08T01:00:05.778Z,16.35
2023-04-08T01:00:29.818Z,16.39
2023-04-08T01:00:58.415Z,16.37
2023-04-08T01:01:27.202Z,16.37
2023-04-08T01:01:55.402Z,16.35
2023-04-08T01:02:24.820Z,16.32
2023-04-08T01:02:57.888Z,16.31
2023-04-08T01:03:28.980Z,16.31
2023-04-08T01:03:57.966Z,16.28
2023-04-08T01:04:29.548Z,16.26
2023-04-08T01:04:57.026Z,16.32
2023-04-08T01:05:27.952Z,16.33
2023-04-08T01:05:56.781Z,16.33
2023-04-08T01:06:29.031Z,16.33
2023-04-08T01:06:58.117Z,16.35
2023-04-08T01:07:24.943Z,16.33
2023-04-08T01:07:48.878Z,16.33
2023-04-08T01:08:11.900Z,16.34
2023-04-08T01:08:39.340Z,16.34
2023-04-08T01:09:04.959Z,16.34
2023-04-08T01:09:32.424Z,16.37
2023-04-08T01:09:56.300Z,16.37
2023-04-08T01:10:22.176Z,16.37
2023-04-08T01:10:47.905Z,16.37
2023-04-08T01:11:11.933Z,16.36
2023-04-08T01:11:35.506Z,16.35
2023-04-08T01:11:58.834Z,16.36
2023-04-08T01:12:27.363Z,16.34
2023-04-08T01:12:56.518Z,16.31
2023-04-08T01:13:18.902Z,16.39
2023-04-08T01:13:42.438Z,16.40
2023-04-08T01:14:10.180Z,16.42
2023-04-08T01:14:35.271Z,16.43
2023-04-08T01:15:01.570Z,16.47
2023-04-08T01:15:26.153Z,16.45
2023-04-08T01:15:48.785Z,16.45
2023-04-08T01:16:14.332Z,16.45
2023-04-08T01:16:38.680Z,16.41
2023-04-08T01:17:03.289Z,16.43
2023-04-08T01:17:25.515Z,16.41
2023-04-08T01:17:52.968Z,16.45
2023-04-08T01:18:17.724Z,16.39
2023-04-08T01:18:44.044Z,16.43
2023-04-08T01:19:08.209Z,16.43
2023-04-08T01:19:34.979Z,16.38
2023-04-08T01:19:59.440Z,16.42
2023-04-08T01:20:23.627Z,16.35
2023-04-08T01:20:46.765Z,16.38
2023-04-08T01:21:08.982Z,16.07
2023-04-08T01:21:30.730Z,16.41
2023-04-08T01:21:56.958Z,16.36
2023-04-08T01:22:27.300Z,16.39
2023-04-08T01:23:03.733Z,16.39
2023-04-08T01:23:34.059Z,16.40
2023-04-08T01:24:02.197Z,16.41
2023-04-08T01:24:29.646Z,16.39
2023-04-08T01:24:59.486Z,16.27
2023-04-08T01:25:25.368Z,16.33
2023-04-08T01:25:49.872Z,16.37
2023-04-08T01:26:13.432Z,16.37
2023-04-08T01:26:36.303Z,16.36
2023-04-08T01:27:01.579Z,16.37
2023-04-08T01:27:24.308Z,16.37
2023-04-08T01:27:48.360Z,16.37
2023-04-08T01:28:14.093Z,16.35
2023-04-08T01:28:36.927Z,16.37
2023-04-08T01:29:01.803Z,16.34
2023-04-08T01:29:25.280Z,16.34
2023-04-08T01:29:49.075Z,16.35
2023-04-08T01:30:12.914Z,16.36
2023-04-08T01:30:37.881Z,16.32
2023-04-08T01:31:02.318Z,16.33
2023-04-08T01:31:25.477Z,16.34
2023-04-08T01:31:49.126Z,16.35
2023-04-08T01:32:12.504Z,16.34
2023-04-08T01:32:35.159Z,16.33
2023-04-08T01:32:57.809Z,16.33
2023-04-08T01:33:22.238Z,16.29
2023-04-08T01:33:44.991Z,16.35
2023-04-08T01:34:08.230Z,16.30
2023-04-08T01:34:31.536Z,16.38
2023-04-08T01:34:55.296Z,16.34
2023-04-08T01:35:17.039Z,16.36
2023-04-08T01:35:39.340Z,16.37
2023-04-08T01:36:02.399Z,16.38
2023-04-08T01:36:26.898Z,16.38
2023-04-08T01:36:50.387Z,16.35
2023-04-08T01:37:13.570Z,16.35
2023-04-08T01:37:36.914Z,16.33
2023-04-08T01:38:00.902Z,16.35
2023-04-08T01:38:25.727Z,16.34
2023-04-08T01:38:48.760Z,16.26
2023-04-08T01:39:11.402Z,16.35
2023-04-08T01:39:35.915Z,16.35
2023-04-08T01:40:00.119Z,16.30
2023-04-08T01:40:22.089Z,16.38
2023-04-08T01:40:44.932Z,16.37
2023-04-08T01:41:11.857Z,16.32
2023-04-08T01:41:36.109Z,16.36
2023-04-08T01:41:59.237Z,16.26
2023-04-08T01:42:22.616Z,16.33
2023-04-08T01:42:48.400Z,16.33
2023-04-08T01:43:11.463Z,16.33
2023-04-08T01:43:35.030Z,16.31
2023-04-08T01:43:58.055Z,16.28
2023-04-08T01:44:22.800Z,16.27
2023-04-08T01:44:45.696Z,16.31
2023-04-08T01:45:09.241Z,16.28
2023-04-08T01:45:31.430Z,16.33
2023-04-08T01:45:58.098Z,16.35
2023-04-08T01:46:21.833Z,16.34
2023-04-08T01:46:44.100Z,16.35
2023-04-08T01:47:06.005Z,16.34
2023-04-08T01:47:30.414Z,16.32
2023-04-08T01:47:53.513Z,16.33
2023-04-08T01:48:15.887Z,16.34
2023-04-08T01:48:38.199Z,16.33
2023-04-08T01:49:01.371Z,16.33
2023-04-08T01:49:25.028Z,16.34
2023-04-08T01:49:47.166Z,16.35
2023-04-08T01:50:09.738Z,16.33
2023-04-08T01:50:33.070Z,16.35
2023-04-08T01:50:56.252Z,16.33
2023-04-08T01:51:18.659Z,16.19
2023-04-08T01:51:41.345Z,16.34
2023-04-08T01:52:05.111Z,16.34
2023-04-08T01:52:29.739Z,16.35
2023-04-08T01:52:53.718Z,16.35
2023-04-08T01:53:15.446Z,16.35
2023-04-08T01:53:38.640Z,16.37
2023-04-08T01:54:00.540Z,16.37
2023-04-08T01:54:22.273Z,16.39
2023-04-08T01:54:43.984Z,16.37
2023-04-08T01:55:06.397Z,16.38
2023-04-08T01:55:29.653Z,16.38
2023-04-08T01:56:01.810Z,16.38
2023-04-08T01:56:28.429Z,16.39
2023-04-08T01:56:52.459Z,16.30
2023-04-08T01:57:20.606Z,16.37
2023-04-08T01:57:45.361Z,16.31
2023-04-08T01:58:08.896Z,16.38
2023-04-08T01:58:37.859Z,16.37
2023-04-08T01:59:02.203Z,16.36
2023-04-08T01:59:27.451Z,16.37
2023-04-08T01:59:52.541Z,16.30
2023-04-08T02:00:16.603Z,16.24
2023-04-08T02:00:46.683Z,16.40
2023-04-08T02:01:12.195Z,16.38
2023-04-08T02:01:35.707Z,16.40
2023-04-08T02:01:58.892Z,16.40
2023-04-08T02:02:26.642Z,16.38
2023-04-08T02:02:49.823Z,16.37
2023-04-08T02:03:14.034Z,16.39
2023-04-08T02:03:37.602Z,16.39
2023-04-08T02:04:00.564Z,16.39
2023-04-08T02:04:22.533Z,16.38
2023-04-08T02:04:45.367Z,16.40
2023-04-08T02:05:07.701Z,16.37
2023-04-08T02:05:29.321Z,16.41
2023-04-08T02:05:52.452Z,16.41
2023-04-08T02:06:14.282Z,16.41
2023-04-08T02:06:37.932Z,16.40
2023-04-08T02:07:01.103Z,16.41
2023-04-08T02:07:24.325Z,16.42
2023-04-08T02:07:47.336Z,16.39
2023-04-08T02:08:09.385Z,16.43
2023-04-08T02:08:30.971Z,16.43
2023-04-08T02:08:54.465Z,16.45
2023-04-08T02:09:16.378Z,16.41
2023-04-08T02:09:38.151Z,16.45
2023-04-08T02:10:00.792Z,16.43
2023-04-08T02:10:22.399Z,16.35
2023-04-08T02:10:44.010Z,16.44
2023-04-08T02:11:06.167Z,16.32
2023-04-08T02:11:30.539Z,16.46
2023-04-08T02:11:52.177Z,16.48
2023-04-08T02:12:13.958Z,16.46
2023-04-08T02:12:35.683Z,16.47
2023-04-08T02:12:59.346Z,16.48
2023-04-08T02:13:21.084Z,16.32
2023-04-08T02:13:42.727Z,16.46
2023-04-08T02:14:04.497Z,16.45
2023-04-08T02:14:27.231Z,16.41
2023-04-08T02:14:50.805Z,16.46
2023-04-08T02:15:13.842Z,16.48
2023-04-08T02:15:38.819Z,16.47
2023-04-08T02:16:07.910Z,16.47
2023-04-08T02:16:34.030Z,16.45
2023-04-08T02:17:02.372Z,16.41
2023-04-08T02:17:31.663Z,16.38
2023-04-08T02:17:57.434Z,16.40
2023-04-08T02:18:24.874Z,16.40
2023-04-08T02:18:55.435Z,16.36
2023-04-08T02:19:24.621Z,16.40
2023-04-08T02:19:53.620Z,16.39
2023-04-08T02:20:18.966Z,16.42
2023-04-08T02:20:47.820Z,16.42
2023-04-08T02:21:14.692Z,16.42
2023-04-08T02:21:44.734Z,16.31
2023-04-08T02:22:10.753Z,16.41
2023-04-08T02:22:39.624Z,16.38
2023-04-08T02:23:08.646Z,16.31
2023-04-08T02:23:35.510Z,16.43
2023-04-08T02:24:00.170Z,16.43
2023-04-08T02:24:22.920Z,16.36
2023-04-08T02:24:47.047Z,16.40
2023-04-08T02:25:13.740Z,16.38
2023-04-08T02:25:38.478Z,16.37
2023-04-08T02:26:03.871Z,16.37
2023-04-08T02:26:26.536Z,16.34
2023-04-08T02:26:55.755Z,16.34
2023-04-08T02:27:20.286Z,16.33
2023-04-08T02:27:44.786Z,16.32
2023-04-08T02:28:10.642Z,16.31
2023-04-08T02:28:35.557Z,16.26
2023-04-08T02:28:58.018Z,16.25
2023-04-08T02:29:20.749Z,16.32
2023-04-08T02:29:42.884Z,16.31
2023-04-08T02:30:06.826Z,16.32
2023-04-08T02:30:29.602Z,16.33
2023-04-08T02:30:52.924Z,16.31
2023-04-08T02:31:18.070Z,16.30
2023-04-08T02:31:42.286Z,16.37
2023-04-08T02:32:05.430Z,16.35
2023-04-08T02:32:29.115Z,16.34
2023-04-08T02:32:54.890Z,16.32
2023-04-08T02:33:19.549Z,16.34
2023-04-08T02:33:42.544Z,16.30
2023-04-08T02:34:05.963Z,16.26
2023-04-08T02:34:28.819Z,16.31
2023-04-08T02:34:51.107Z,16.32
2023-04-08T02:35:14.344Z,16.33
2023-04-08T02:35:37.181Z,16.33
2023-04-08T02:36:02.092Z,16.31
2023-04-08T02:36:27.228Z,16.25
2023-04-08T02:36:51.096Z,16.31
2023-04-08T02:37:12.928Z,16.30
2023-04-08T02:37:34.787Z,16.31
2023-04-08T02:37:57.397Z,16.30
2023-04-08T02:38:19.836Z,16.31
2023-04-08T02:38:41.528Z,16.32
2023-04-08T02:39:03.930Z,16.33
2023-04-08T02:39:32.220Z,16.26
2023-04-08T02:39:53.940Z,16.33
2023-04-08T02:40:26.309Z,16.32
2023-04-08T02:40:50.438Z,16.32
2023-04-08T02:41:12.303Z,16.28
2023-04-08T02:41:35.045Z,16.31
2023-04-08T02:41:58.143Z,16.31
2023-04-08T02:42:19.834Z,16.28
2023-04-08T02:42:42.565Z,16.26
2023-04-08T02:43:04.288Z,16.32
2023-04-08T02:43:31.667Z,16.29
2023-04-08T02:43:55.489Z,16.30
2023-04-08T02:44:17.283Z,16.31
2023-04-08T02:44:38.930Z,16.32
2023-04-08T02:45:00.565Z,16.31
2023-04-08T02:45:23.393Z,16.32
2023-04-08T02:45:46.946Z,16.31
2023-04-08T02:46:11.679Z,16.32
2023-04-08T02:46:33.410Z,16.31
2023-04-08T02:46:57.685Z,16.35
2023-04-08T02:47:20.338Z,16.33
2023-04-08T02:47:42.099Z,16.35
2023-04-08T02:48:05.938Z,16.33
2023-04-08T02:48:28.004Z,16.36
2023-04-08T02:48:49.998Z,16.37
2023-04-08T02:49:12.705Z,16.37
2023-04-08T02:49:34.443Z,16.35
2023-04-08T02:49:56.224Z,16.35
2023-04-08T02:50:17.919Z,16.35
2023-04-08T02:50:41.307Z,16.29
2023-04-08T02:51:03.415Z,16.27
2023-04-08T02:51:25.970Z,16.34
2023-04-08T02:51:47.580Z,16.34
2023-04-08T02:52:10.326Z,16.35
2023-04-08T02:52:31.919Z,16.34
2023-04-08T02:52:53.525Z,16.25
2023-04-08T02:53:15.897Z,16.35
2023-04-08T02:53:37.698Z,16.35
2023-04-08T02:54:00.261Z,16.34
2023-04-08T02:54:22.074Z,16.33
2023-04-08T02:54:43.759Z,16.28
2023-04-08T02:55:09.717Z,16.28
2023-04-08T02:55:32.396Z,16.18
2023-04-08T02:55:53.995Z,16.27
2023-04-08T02:56:15.635Z,16.28
2023-04-08T02:56:37.321Z,16.27
2023-04-08T02:57:01.393Z,16.26
2023-04-08T02:57:23.153Z,16.21
2023-04-08T02:57:44.896Z,16.22
2023-04-08T02:58:06.591Z,16.22
2023-04-08T02:58:29.288Z,16.21
2023-04-08T02:58:52.300Z,16.21
2023-04-08T02:59:14.206Z,16.21
2023-04-08T02:59:37.745Z,16.22
2023-04-08T03:00:00.443Z,16.25
2023-04-08T03:00:22.189Z,16.22
2023-04-08T03:00:43.850Z,16.22
2023-04-08T03:01:05.638Z,16.22
2023-04-08T03:01:28.365Z,16.23
2023-04-08T03:01:51.366Z,16.22
2023-04-08T03:02:13.098Z,16.20
2023-04-08T03:02:35.060Z,16.22
2023-04-08T03:02:57.984Z,16.22
2023-04-08T03:03:20.074Z,16.22
2023-04-08T03:03:41.871Z,16.24
2023-04-08T03:04:03.853Z,16.14
2023-04-08T03:04:26.450Z,16.22
2023-04-08T03:04:48.053Z,16.22
2023-04-08T03:05:10.158Z,16.23
2023-04-08T03:05:31.994Z,16.25
2023-04-08T03:05:54.790Z,16.26
2023-04-08T03:06:16.630Z,16.10
2023-04-08T03:06:38.268Z,16.18
2023-04-08T03:06:59.873Z,16.26
2023-04-08T03:07:22.561Z,16.14
2023-04-08T03:07:44.194Z,16.24
2023-04-08T03:08:06.809Z,16.23
2023-04-08T03:08:28.529Z,16.29
2023-04-08T03:08:51.649Z,16.28
2023-04-08T03:09:13.490Z,16.17
2023-04-08T03:09:35.355Z,16.28
2023-04-08T03:09:57.208Z,16.27
2023-04-08T03:10:18.873Z,16.26
2023-04-08T03:10:41.578Z,16.27
2023-04-08T03:11:03.233Z,16.28
2023-04-08T03:11:24.992Z,16.27
2023-04-08T03:11:52.523Z,16.27
2023-04-08T03:12:15.605Z,16.28
2023-04-08T03:12:38.158Z,16.26
2023-04-08T03:12:59.844Z,16.24
2023-04-08T03:13:21.479Z,16.24
2023-04-08T03:13:43.193Z,16.26
2023-04-08T03:14:05.763Z,16.28
2023-04-08T03:14:27.353Z,16.13
2023-04-08T03:14:49.388Z,16.22
2023-04-08T03:15:11.105Z,16.28
2023-04-08T03:15:32.839Z,16.29
2023-04-08T03:15:55.422Z,16.27
2023-04-08T03:16:17.149Z,16.25
2023-04-08T03:16:38.809Z,16.24
2023-04-08T03:17:00.572Z,16.27
2023-04-08T03:17:23.294Z,16.16
2023-04-08T03:17:45.032Z,16.28
2023-04-08T03:18:06.844Z,16.29
2023-04-08T03:18:28.435Z,16.27
2023-04-08T03:18:51.664Z,16.27
2023-04-08T03:19:13.499Z,16.28
2023-04-08T03:19:35.370Z,16.28
2023-04-08T03:19:56.955Z,16.28
2023-04-08T03:20:19.464Z,16.29
2023-04-08T03:20:41.612Z,16.28
2023-04-08T03:21:03.421Z,15.97
2023-04-08T03:21:25.106Z,16.29
2023-04-08T03:21:47.706Z,16.30
2023-04-08T03:22:10.190Z,16.11
2023-04-08T03:22:32.025Z,16.23
2023-04-08T03:22:53.681Z,16.30
2023-04-08T03:23:15.406Z,16.30
2023-04-08T03:23:38.041Z,16.30
2023-04-08T03:23:59.836Z,16.33
2023-04-08T03:24:21.574Z,16.30
2023-04-08T03:24:43.131Z,16.31
2023-04-08T03:25:06.490Z,16.30
2023-04-08T03:25:29.428Z,16.19
2023-04-08T03:25:51.365Z,16.28
2023-04-08T03:26:13.163Z,16.27
2023-04-08T03:26:36.252Z,16.26
2023-04-08T03:26:58.089Z,16.27
2023-04-08T03:27:21.213Z,16.24
2023-04-08T03:27:42.846Z,16.26
2023-04-08T03:28:04.810Z,16.19
2023-04-08T03:28:27.649Z,16.19
2023-04-08T03:28:49.809Z,16.23
2023-04-08T03:29:11.895Z,16.25
2023-04-08T03:29:33.849Z,16.26
2023-04-08T03:29:57.882Z,16.25
2023-04-08T03:30:19.685Z,16.27
2023-04-08T03:30:41.495Z,16.29
2023-04-08T03:31:03.647Z,16.30
2023-04-08T03:31:26.570Z,16.28
2023-04-08T03:31:48.234Z,16.23
2023-04-08T03:32:09.916Z,16.30
2023-04-08T03:32:31.534Z,16.27
2023-04-08T03:32:54.210Z,16.29
2023-04-08T03:33:16.187Z,16.25
2023-04-08T03:33:37.834Z,16.30
2023-04-08T03:33:59.458Z,16.29
2023-04-08T03:34:23.239Z,16.26
2023-04-08T03:34:44.836Z,16.27
2023-04-08T03:35:07.051Z,16.28
2023-04-08T03:35:28.827Z,16.29
2023-04-08T03:35:51.434Z,16.27
2023-04-08T03:36:14.294Z,16.30
2023-04-08T03:36:36.060Z,16.25
2023-04-08T03:36:57.675Z,16.31
2023-04-08T03:37:19.477Z,16.31
2023-04-08T03:37:42.059Z,16.29
2023-04-08T03:38:03.802Z,16.29
2023-04-08T03:38:25.820Z,16.31
2023-04-08T03:38:47.663Z,16.29
2023-04-08T03:39:10.419Z,16.28
2023-04-08T03:39:32.025Z,16.29
2023-04-08T03:39:54.973Z,16.28
2023-04-08T03:40:17.106Z,16.22
2023-04-08T03:40:39.936Z,16.26
2023-04-08T03:41:01.609Z,16.26
2023-04-08T03:41:23.309Z,16.27
2023-04-08T03:41:45.072Z,16.28
2023-04-08T03:42:06.707Z,16.29
2023-04-08T03:42:30.683Z,16.26
2023-04-08T03:42:52.411Z,16.29
2023-04-08T03:43:14.347Z,16.29
2023-04-08T03:43:38.041Z,16.31
2023-04-08T03:44:01.098Z,16.30
2023-04-08T03:44:22.788Z,16.23
2023-04-08T03:44:44.409Z,16.22
2023-04-08T03:45:08.107Z,16.28
2023-04-08T03:45:29.756Z,16.25
2023-04-08T03:45:51.379Z,16.24
2023-04-08T03:46:13.042Z,16.25
2023-04-08T03:46:35.725Z,16.27
2023-04-08T03:46:57.470Z,16.27
2023-04-08T03:47:19.124Z,16.24
2023-04-08T03:47:42.249Z,16.18
2023-04-08T03:48:04.139Z,16.24
2023-04-08T03:48:25.818Z,16.22
2023-04-08T03:48:47.535Z,16.22
2023-04-08T03:49:10.370Z,16.23
2023-04-08T03:49:32.005Z,16.24
2023-04-08T03:49:54.434Z,16.23
2023-04-08T03:50:16.187Z,16.24
2023-04-08T03:50:37.889Z,16.26
2023-04-08T03:51:00.664Z,16.25
2023-04-08T03:51:22.355Z,16.25
2023-04-08T03:51:44.033Z,16.26
2023-04-08T03:52:05.963Z,16.28
2023-04-08T03:52:28.587Z,16.27
2023-04-08T03:52:50.473Z,16.24
2023-04-08T03:53:12.882Z,16.22
2023-04-08T03:53:34.430Z,16.24
2023-04-08T03:53:56.107Z,16.24
2023-04-08T03:54:18.860Z,16.21
2023-04-08T03:54:40.713Z,16.23
2023-04-08T03:55:02.497Z,16.22
2023-04-08T03:55:24.215Z,16.22
2023-04-08T03:55:45.931Z,16.11
2023-04-08T03:56:08.953Z,16.23
2023-04-08T03:56:30.557Z,16.25
2023-04-08T03:56:52.223Z,16.25
2023-04-08T03:57:13.790Z,16.21
2023-04-08T03:57:36.685Z,16.20
2023-04-08T03:57:59.290Z,16.19
2023-04-08T03:58:20.923Z,16.22
2023-04-08T03:58:42.477Z,16.20
2023-04-08T03:59:04.089Z,16.20
2023-04-08T03:59:26.709Z,16.21
2023-04-08T03:59:48.344Z,16.20
2023-04-08T04:00:11.244Z,16.19
2023-04-08T04:00:36.028Z,16.19
2023-04-08T04:00:58.687Z,16.19
2023-04-08T04:01:20.365Z,16.21
2023-04-08T04:01:42.169Z,16.21
2023-04-08T04:02:04.052Z,16.22
2023-04-08T04:02:26.860Z,16.24
2023-04-08T04:02:48.628Z,16.23
2023-04-08T04:03:12.959Z,16.18
2023-04-08T04:03:34.943Z,16.23
2023-04-08T04:03:57.919Z,16.25
2023-04-08T04:04:19.965Z,16.24
2023-04-08T04:04:41.881Z,16.25
2023-04-08T04:05:04.234Z,16.26
2023-04-08T04:05:26.071Z,16.27
2023-04-08T04:05:48.622Z,16.25
2023-04-08T04:06:10.716Z,16.25
2023-04-08T04:06:32.374Z,16.23
2023-04-08T04:06:56.041Z,15.91
2023-04-08T04:07:17.732Z,16.21
2023-04-08T04:07:39.423Z,16.26
2023-04-08T04:08:01.518Z,16.26
2023-04-08T04:08:24.426Z,16.25
2023-04-08T04:08:46.415Z,16.24
2023-04-08T04:09:08.151Z,16.25
2023-04-08T04:09:29.912Z,16.25
2023-04-08T04:09:56.065Z,16.23
2023-04-08T04:10:17.886Z,16.22
2023-04-08T04:10:39.532Z,16.22
2023-04-08T04:11:01.152Z,16.22
2023-04-08T04:11:22.816Z,16.14
2023-04-08T04:11:45.479Z,16.21
2023-04-08T04:12:07.053Z,16.21
2023-04-08T04:12:28.694Z,16.23
2023-04-08T04:12:52.161Z,16.20
2023-04-08T04:13:14.825Z,16.15
2023-04-08T04:13:36.414Z,16.23
2023-04-08T04:13:58.030Z,16.22
2023-04-08T04:14:19.625Z,16.20
2023-04-08T04:14:41.249Z,16.24
2023-04-08T04:15:04.200Z,16.23
2023-04-08T04:15:25.958Z,16.22
2023-04-08T04:15:47.828Z,16.25
2023-04-08T04:16:09.549Z,16.26
2023-04-08T04:16:33.022Z,16.21
2023-04-08T04:16:55.880Z,16.25
2023-04-08T04:17:17.569Z,16.22
2023-04-08T04:17:39.216Z,16.24
2023-04-08T04:18:03.244Z,16.26
2023-04-08T04:18:25.852Z,16.26
2023-04-08T04:18:47.591Z,16.26
2023-04-08T04:19:09.234Z,16.28
2023-04-08T04:19:31.367Z,16.27
2023-04-08T04:19:52.942Z,16.27
2023-04-08T04:20:16.167Z,16.29
2023-04-08T04:20:40.085Z,16.30
2023-04-08T04:21:05.767Z,16.29
2023-04-08T04:21:27.478Z,16.29
2023-04-08T04:21:50.070Z,16.28
2023-04-08T04:22:11.802Z,16.28
2023-04-08T04:22:33.498Z,16.24
2023-04-08T04:22:55.136Z,16.28
2023-04-08T04:23:16.833Z,16.27
2023-04-08T04:23:39.460Z,16.28
2023-04-08T04:24:01.110Z,16.27
2023-04-08T04:24:22.754Z,16.28
2023-04-08T04:24:47.266Z,16.29
2023-04-08T04:25:10.315Z,16.31
2023-04-08T04:25:31.965Z,16.32
2023-04-08T04:25:53.553Z,16.29
2023-04-08T04:26:15.321Z,16.23
2023-04-08T04:26:37.975Z,16.31
2023-04-08T04:26:59.580Z,16.27
2023-04-08T04:27:21.239Z,16.22
2023-04-08T04:27:43.875Z,16.24
2023-04-08T04:28:07.916Z,16.19
2023-04-08T04:28:29.461Z,16.28
2023-04-08T04:28:51.201Z,16.28
2023-04-08T04:29:12.967Z,16.28
2023-04-08T04:29:35.747Z,16.28
2023-04-08T04:29:57.410Z,16.28
2023-04-08T04:30:19.673Z,16.29
2023-04-08T04:30:41.318Z,16.30
2023-04-08T04:31:03.926Z,16.31
2023-04-08T04:31:26.489Z,16.23
2023-04-08T04:31:48.256Z,16.26
2023-04-08T04:32:09.945Z,16.27
2023-04-08T04:32:32.653Z,16.23
2023-04-08T04:32:54.388Z,16.25
2023-04-08T04:33:16.184Z,16.18
2023-04-08T04:33:37.910Z,16.25
2023-04-08T04:34:00.555Z,16.22
2023-04-08T04:34:22.174Z,16.17
2023-04-08T04:34:44.617Z,16.20
2023-04-08T04:35:06.578Z,16.21
2023-04-08T04:35:29.249Z,16.20
2023-04-08T04:35:51.032Z,16.13
2023-04-08T04:36:12.731Z,16.20
2023-04-08T04:36:34.351Z,16.19
2023-04-08T04:36:56.934Z,16.19
2023-04-08T04:37:18.600Z,16.16
2023-04-08T04:37:40.312Z,16.19
2023-04-08T04:38:02.117Z,16.18
2023-04-08T04:38:24.731Z,16.23
2023-04-08T04:38:47.745Z,16.19
2023-04-08T04:39:11.344Z,16.18
2023-04-08T04:39:33.049Z,16.08
2023-04-08T04:39:54.676Z,16.18
2023-04-08T04:40:17.377Z,16.17
2023-04-08T04:40:39.484Z,16.16
2023-04-08T04:41:01.690Z,16.18
2023-04-08T04:41:24.475Z,16.18
2023-04-08T04:41:47.299Z,16.17
2023-04-08T04:42:09.013Z,16.16
2023-04-08T04:42:31.051Z,16.15
2023-04-08T04:42:52.769Z,16.08
2023-04-08T04:43:16.719Z,16.15
2023-04-08T04:43:38.480Z,16.11
2023-04-08T04:44:00.149Z,16.06
2023-04-08T04:44:22.764Z,16.10
2023-04-08T04:44:44.563Z,16.10
2023-04-08T04:45:07.641Z,16.13
2023-04-08T04:45:29.283Z,16.13
2023-04-08T04:45:50.856Z,16.13
2023-04-08T04:46:13.566Z,16.13
2023-04-08T04:46:35.312Z,15.79
2023-04-08T04:46:57.001Z,16.13
2023-04-08T04:47:19.773Z,16.12
2023-04-08T04:47:41.500Z,16.14
2023-04-08T04:48:03.585Z,16.13
2023-04-08T04:48:25.522Z,16.12
2023-04-08T04:48:47.269Z,16.13
2023-04-08T04:49:09.853Z,16.14
2023-04-08T04:49:31.464Z,16.13
2023-04-08T04:49:53.066Z,16.12
2023-04-08T04:50:14.692Z,16.12
2023-04-08T04:50:36.594Z,16.15
2023-04-08T04:51:01.279Z,16.17
2023-04-08T04:51:23.081Z,16.14
2023-04-08T04:51:44.695Z,16.16
2023-04-08T04:52:06.566Z,16.15
2023-04-08T04:52:28.174Z,16.18
2023-04-08T04:52:51.083Z,16.18
2023-04-08T04:53:12.689Z,16.19
2023-04-08T04:53:34.391Z,16.16
2023-04-08T04:53:56.018Z,16.15
2023-04-08T04:54:18.626Z,16.20
2023-04-08T04:54:40.336Z,16.20
2023-04-08T04:55:01.960Z,16.19
2023-04-08T04:55:23.640Z,16.20
2023-04-08T04:55:46.260Z,16.21
2023-04-08T04:56:07.972Z,16.19
2023-04-08T04:56:29.625Z,16.20
2023-04-08T04:56:51.455Z,16.23
2023-04-08T04:57:14.035Z,16.23